Terminal Aerodrome Forecast
Issued by NWS Tulsa, OK

Home | Current Version | Previous Version | Text Only | Print | Product List | Glossary On
Versions: 1 2 3 4 5 6 7 8 9 10 11 12 13 14
000
FTUS44 KTSA 191744
TAFTUL
TAF
KTUL 191744Z 1918/2018 15011KT P6SM OVC008
     FM192100 15011KT P6SM OVC015
     FM200400 14006KT P6SM OVC007
     FM200700 15005KT 3SM BR OVC003
     FM201600 18012KT P6SM BKN015=

USA.gov is the U.S. government's official web portal to all federal, state and local government web resources and services.